Time;durP1;ratioP1;P1;durP2;ratioP2;P2;SDS_P1;SDS_P2;PMS_P1;PMS_P2;Temp;Humidity;BMP_temperature;BMP_pressure;BME280_temperature;BME280_humidity;BME280_pressure;Samples;Min_cycle;Max_cycle;Signal;HPM_P1;HPM_P2
2023/07/28 00:00:36;;;;;;;;;2.00;2.00;;;;;20.66;59.19;100392.25;5043000;28;45273;-62
2023/07/28 00:03:01;;;;;;;;;4.25;3.00;;;;;20.63;58.99;100386.13;5042513;28;45329;-62
2023/07/28 00:05:26;;;;;;;;;2.50;2.50;;;;;20.66;58.50;100397.59;5041355;28;46754;-62
2023/07/28 00:07:52;;;;;;;;;3.25;3.25;;;;;20.63;58.94;100385.28;5024734;28;45866;-62
2023/07/28 00:10:17;;;;;;;;;3.50;3.25;;;;;20.65;58.84;100387.84;5042643;28;45460;-62
2023/07/28 00:12:43;;;;;;;;;4.75;3.00;;;;;20.65;58.61;100386.03;5042846;28;45480;-62
2023/07/28 00:15:08;;;;;;;;;4.50;4.50;;;;;20.63;58.85;100379.94;5042429;28;48621;-62
2023/07/28 00:17:34;;;;;;;;;3.00;3.00;;;;;20.62;58.89;100380.91;5042393;28;45279;-62
2023/07/28 00:19:59;;;;;;;;;3.25;3.25;;;;;20.67;58.84;100386.81;5042762;28;45266;-62
2023/07/28 00:22:24;;;;;;;;;3.00;3.00;;;;;20.66;58.95;100385.09;5042368;28;45447;-62
2023/07/28 00:24:49;;;;;;;;;3.25;3.25;;;;;20.67;58.76;100381.47;5042294;28;46018;-62
2023/07/28 00:27:15;;;;;;;;;4.00;4.00;;;;;20.65;59.12;100388.69;5042140;28;53858;-62
2023/07/28 00:29:41;;;;;;;;;4.00;4.00;;;;;20.67;58.98;100380.63;5042448;28;45147;-62
2023/07/28 00:32:07;;;;;;;;;6.00;3.25;;;;;20.67;59.14;100386.81;5042283;28;45424;-62
2023/07/28 00:34:32;;;;;;;;;5.25;4.50;;;;;20.67;59.03;100386.81;5041951;28;46010;-62
2023/07/28 00:36:57;;;;;;;;;4.25;3.00;;;;;20.68;58.80;100388.53;5041986;28;49942;-62
2023/07/28 00:39:23;;;;;;;;;3.00;3.00;;;;;20.68;58.55;100384.97;5042379;28;45309;-62
2023/07/28 00:41:48;;;;;;;;;4.00;4.00;;;;;20.69;58.70;100379.56;5042200;28;45329;-62
2023/07/28 00:44:14;;;;;;;;;3.00;3.00;;;;;20.70;58.99;100383.09;5042301;28;45403;-62
2023/07/28 00:46:40;;;;;;;;;3.50;3.50;;;;;20.67;58.57;100381.47;5042061;28;45328;-62
2023/07/28 00:49:05;;;;;;;;;4.00;3.00;;;;;20.71;59.04;100385.69;5041694;28;45246;-62
2023/07/28 00:51:31;;;;;;;;;6.00;6.00;;;;;20.70;59.03;100380.41;5042134;28;45342;-62
2023/07/28 00:53:59;;;;;;;;;5.75;3.00;;;;;20.68;59.04;100377.84;5040663;28;48208;-61
2023/07/28 00:56:24;;;;;;;;;2.25;2.25;;;;;20.70;58.49;100383.09;5042011;28;45230;-62
2023/07/28 00:58:51;;;;;;;;;5.50;4.00;;;;;20.69;59.06;100374.22;5041972;28;45495;-62
2023/07/28 01:01:16;;;;;;;;;3.00;3.00;;;;;20.69;58.65;100379.56;5042055;28;45231;-62
2023/07/28 01:03:42;;;;;;;;;4.50;3.25;;;;;20.68;58.65;100387.66;5041257;28;45707;-62
2023/07/28 01:06:18;;;;;;;;;4.50;2.50;;;;;20.67;58.80;100386.81;5042001;28;45281;-62
2023/07/28 01:09:05;;;;;;;;;3.00;3.00;;;;;20.66;59.32;100385.09;5024020;28;45349;-62
2023/07/28 01:11:31;;;;;;;;;3.50;3.00;;;;;20.66;59.16;100385.09;5041505;28;45463;-62
2023/07/28 01:13:56;;;;;;;;;4.00;1.00;;;;;20.63;58.92;100385.28;5041436;28;46022;-62
2023/07/28 01:16:22;;;;;;;;;4.50;4.50;;;;;20.62;58.83;100379.06;5041665;28;45309;-62
2023/07/28 01:18:48;;;;;;;;;4.25;3.75;;;;;20.63;58.72;100375.47;5041692;28;45419;-62
2023/07/28 01:21:19;;;;;;;;;3.50;3.50;;;;;20.64;59.36;100379.00;5041658;28;45201;-62
2023/07/28 01:24:21;;;;;;;;;3.00;2.00;;;;;20.65;59.25;100378.03;5041354;28;45575;-62
2023/07/28 01:26:48;;;;;;;;;3.75;3.00;;;;;20.63;59.27;100371.94;5041259;28;45348;-62
2023/07/28 01:29:15;;;;;;;;;3.00;3.00;;;;;20.63;58.92;100377.28;5041515;28;45266;-62
2023/07/28 01:31:41;;;;;;;;;4.00;4.00;;;;;20.63;58.84;100379.94;5040619;28;45646;-62
2023/07/28 01:34:06;;;;;;;;;4.25;4.00;;;;;20.63;58.94;100379.94;5041063;28;46490;-62
2023/07/28 01:36:31;;;;;;;;;3.25;3.25;;;;;20.65;59.41;100379.84;5041353;28;45387;-62
2023/07/28 01:38:57;;;;;;;;;1.75;1.75;;;;;20.64;59.08;100379.00;5041601;28;45391;-62
2023/07/28 01:41:22;;;;;;;;;3.00;3.00;;;;;20.64;59.00;100376.34;5041388;28;45300;-62
2023/07/28 01:43:47;;;;;;;;;2.75;2.75;;;;;20.63;58.95;100371.94;5041142;28;45476;-62
2023/07/28 01:46:13;;;;;;;;;2.50;2.50;;;;;20.62;59.50;100373.72;5027976;28;45252;-62
2023/07/28 01:48:38;;;;;;;;;2.00;2.00;;;;;20.62;59.55;100367.56;5026169;28;55720;-62
2023/07/28 01:51:03;;;;;;;;;1.50;1.50;;;;;20.62;59.57;100354.19;5021344;28;45444;-62
2023/07/28 01:53:28;;;;;;;;;2.50;2.50;;;;;20.62;59.61;100356.88;5021011;28;46219;-62
2023/07/28 01:55:54;;;;;;;;;2.75;2.50;;;;;20.62;59.25;100362.22;5021098;28;45321;-62
2023/07/28 01:58:19;;;;;;;;;2.25;2.25;;;;;20.59;59.17;100352.59;5022786;28;45237;-62
2023/07/28 02:00:46;;;;;;;;;4.75;2.75;;;;;20.61;59.36;100361.34;5021996;28;52453;-62
2023/07/28 02:03:11;;;;;;;;;3.50;2.25;;;;;20.60;59.69;100358.78;5040592;28;46204;-62
2023/07/28 02:05:37;;;;;;;;;2.00;2.00;;;;;20.61;59.39;100357.81;5039607;28;45295;-62
2023/07/28 02:08:02;;;;;;;;;2.50;2.00;;;;;20.54;59.00;100352.03;5039485;28;45224;-62
2023/07/28 02:10:30;;;;;;;;;2.00;2.00;;;;;20.59;58.94;100357.94;5003178;28;45297;-62
2023/07/28 02:12:55;;;;;;;;;1.00;1.00;;;;;20.61;59.61;100360.50;5031829;28;45497;-62
2023/07/28 02:15:20;;;;;;;;;3.00;1.00;;;;;20.62;59.33;100357.72;5040756;28;45314;-62
2023/07/28 02:17:45;;;;;;;;;3.25;2.50;;;;;20.63;59.33;100361.25;5040568;28;45341;-62
2023/07/28 02:20:12;;;;;;;;;1.25;1.25;;;;;20.62;59.67;100360.38;5026854;28;45381;-62
2023/07/28 02:22:41;;;;;;;;;6.00;3.00;;;;;20.61;59.60;100355.16;5025649;28;46045;-62
2023/07/28 02:25:07;;;;;;;;;4.00;2.00;;;;;20.61;59.36;100363.16;5019187;28;45674;-62
2023/07/28 02:27:32;;;;;;;;;3.00;2.00;;;;;20.61;59.84;100361.34;5020610;28;45255;-62
2023/07/28 02:29:58;;;;;;;;;2.00;2.00;;;;;20.59;59.80;100359.72;5020951;28;45489;-62
2023/07/28 02:32:23;;;;;;;;;3.00;1.50;;;;;20.62;59.30;100360.38;5020287;28;45483;-62
2023/07/28 02:34:49;;;;;;;;;1.00;1.00;;;;;20.62;59.25;100355.06;5020633;28;45393;-62
2023/07/28 02:37:15;;;;;;;;;2.50;2.50;;;;;20.61;59.73;100360.50;5020603;28;45347;-62
2023/07/28 02:39:41;;;;;;;;;1.00;0.75;;;;;20.60;59.85;100353.44;5002689;28;45583;-62
2023/07/28 02:42:06;;;;;;;;;1.75;1.50;;;;;20.58;59.60;100350.03;5020150;28;45269;-62
2023/07/28 02:44:32;;;;;;;;;2.75;2.50;;;;;20.60;59.30;100356.09;5020468;28;45313;-62
2023/07/28 02:46:57;;;;;;;;;2.50;2.00;;;;;20.60;59.20;100356.97;5020452;28;45230;-62
2023/07/28 02:49:22;;;;;;;;;2.00;2.00;;;;;20.60;59.30;100356.09;5020245;28;45243;-62
2023/07/28 02:51:47;;;;;;;;;2.75;2.00;;;;;20.60;59.57;100353.44;5020190;28;45344;-62
2023/07/28 02:54:13;;;;;;;;;2.00;2.00;;;;;20.62;59.12;100351.53;5020225;28;49661;-62
2023/07/28 02:56:38;;;;;;;;;2.00;2.00;;;;;20.61;59.52;100353.31;5020136;28;45594;-62
2023/07/28 02:59:04;;;;;;;;;1.50;1.50;;;;;20.60;59.94;100354.31;5026669;28;45348;-62
2023/07/28 03:01:35;;;;;;;;;1.75;1.75;;;;;20.63;59.45;100358.59;5039939;28;46190;-62
2023/07/28 03:04:02;;;;;;;;;1.50;1.50;;;;;20.63;59.22;100369.28;5030315;28;45670;-62
2023/07/28 03:06:27;;;;;;;;;2.75;1.25;;;;;20.63;59.57;100361.25;5018834;28;45278;-62
2023/07/28 03:08:52;;;;;;;;;2.25;1.00;;;;;20.63;59.21;100367.44;5020089;28;45244;-62
2023/07/28 03:11:18;;;;;;;;;2.00;2.00;;;;;20.61;59.95;100366.66;5019726;28;52464;-62
2023/07/28 03:13:43;;;;;;;;;0.25;0.25;;;;;20.63;59.49;100370.13;5037327;28;53092;-62
2023/07/28 03:16:09;;;;;;;;;2.50;1.00;;;;;20.61;59.65;100366.66;5039834;28;45526;-62
2023/07/28 03:18:34;;;;;;;;;2.25;2.25;;;;;20.61;59.79;100371.16;5039170;28;45550;-62
2023/07/28 03:21:00;;;;;;;;;2.75;1.75;;;;;20.62;59.60;100373.72;5039925;28;46399;-62
2023/07/28 03:23:25;;;;;;;;;2.00;1.00;;;;;20.60;60.00;100362.31;5038184;28;48969;-62
2023/07/28 03:25:51;;;;;;;;;3.50;1.25;;;;;20.61;59.93;100365.84;5039835;28;45220;-62
2023/07/28 03:28:16;;;;;;;;;2.00;2.00;;;;;20.61;59.68;100364.00;5039823;28;45487;-61
2023/07/28 03:30:42;;;;;;;;;2.00;2.00;;;;;20.60;60.03;100366.78;5031573;28;47040;-61
2023/07/28 03:33:07;;;;;;;;;2.25;2.00;;;;;20.60;60.29;100372.13;5019634;28;45403;-62
2023/07/28 03:35:32;;;;;;;;;1.00;1.00;;;;;20.58;59.92;100361.53;5026542;28;46945;-62
2023/07/28 03:37:57;;;;;;;;;3.00;2.00;;;;;20.60;59.58;100370.31;5002047;28;45275;-61
2023/07/28 03:40:23;;;;;;;;;1.75;0.50;;;;;20.60;59.60;100361.44;5019295;28;53957;-61
2023/07/28 03:42:48;;;;;;;;;1.75;1.75;;;;;20.61;60.17;100369.34;5019714;28;45391;-61
2023/07/28 03:45:14;;;;;;;;;2.25;2.25;;;;;20.60;59.56;100362.31;5019700;28;45270;-61
2023/07/28 03:47:39;;;;;;;;;1.00;1.00;;;;;20.60;60.01;100362.31;5019399;28;45647;-61
2023/07/28 03:50:05;;;;;;;;;1.00;1.00;;;;;20.62;59.96;100359.53;5019579;28;47075;-61
2023/07/28 03:52:31;;;;;;;;;1.00;1.00;;;;;20.60;59.69;100364.09;5019608;28;45393;-62
2023/07/28 03:54:56;;;;;;;;;2.00;2.00;;;;;20.61;59.49;100356.00;5019283;28;45502;-61
2023/07/28 03:57:21;;;;;;;;;2.00;1.75;;;;;20.62;59.74;100357.72;5019584;28;45361;-61
2023/07/28 03:59:47;;;;;;;;;2.25;2.00;;;;;20.64;59.44;100346.97;5028752;28;47053;-62
2023/07/28 04:02:12;;;;;;;;;2.75;1.00;;;;;20.64;59.97;100349.63;5033420;28;45470;-62
2023/07/28 04:04:37;;;;;;;;;1.00;1.00;;;;;20.62;59.90;100351.53;5039580;28;45333;-61
2023/07/28 04:07:03;;;;;;;;;0.00;0.00;;;;;20.64;59.49;100360.31;5039341;28;45626;-62
2023/07/28 04:09:28;;;;;;;;;2.00;1.50;;;;;20.66;60.11;100357.53;5020839;28;46411;-61
2023/07/28 04:11:53;;;;;;;;;1.75;1.75;;;;;20.67;59.42;100361.94;5038941;28;45554;-62
2023/07/28 04:14:19;;;;;;;;;3.00;1.25;;;;;20.67;59.53;100349.44;5021253;28;50020;-62
2023/07/28 04:16:44;;;;;;;;;2.00;1.00;;;;;20.67;60.09;100349.44;5039202;28;45239;-61
2023/07/28 04:19:09;;;;;;;;;1.75;1.75;;;;;20.68;59.91;100352.94;5038790;28;46061;-62
2023/07/28 04:21:34;;;;;;;;;1.25;1.25;;;;;20.68;60.03;100350.28;5038814;28;45229;-62
2023/07/28 04:24:00;;;;;;;;;3.00;2.00;;;;;20.67;59.96;100352.09;5037612;28;45318;-61
2023/07/28 04:26:25;;;;;;;;;1.00;1.00;;;;;20.63;59.83;100345.25;5042373;28;45284;-62
2023/07/28 04:28:51;;;;;;;;;4.00;2.00;;;;;20.64;59.96;100354.97;5042455;28;46861;-62
2023/07/28 04:31:16;;;;;;;;;2.00;1.00;;;;;20.59;60.07;100343.69;5042357;28;45230;-62
2023/07/28 04:33:42;;;;;;;;;2.25;1.00;;;;;20.58;60.53;100344.69;5042334;28;45259;-63
2023/07/28 04:36:07;;;;;;;;;1.25;1.25;;;;;20.57;60.10;100346.47;5042303;28;45446;-63
2023/07/28 04:38:33;;;;;;;;;2.50;2.50;;;;;20.56;60.30;100357.25;5042280;28;46015;-63
2023/07/28 04:40:58;;;;;;;;;2.00;2.00;;;;;20.54;60.59;100360.03;5040873;28;45950;-63
2023/07/28 04:43:24;;;;;;;;;2.75;1.75;;;;;20.53;60.05;100354.78;5024427;28;45285;-63
2023/07/28 04:45:49;;;;;;;;;3.00;3.00;;;;;20.51;60.64;100354.00;5042150;28;45408;-63
2023/07/28 04:48:14;;;;;;;;;2.00;2.00;;;;;20.49;60.71;100361.25;5041875;28;46225;-61
2023/07/28 04:50:39;;;;;;;;;1.25;1.25;;;;;20.48;60.93;100359.53;5042094;28;45262;-63
2023/07/28 04:53:05;;;;;;;;;2.00;2.00;;;;;20.45;60.31;100358.78;5042047;28;45354;-63
2023/07/28 04:55:30;;;;;;;;;0.00;0.00;;;;;20.43;60.49;100362.50;5041861;28;45375;-63
2023/07/28 04:57:56;;;;;;;;;2.00;2.00;;;;;20.36;60.68;100345.16;5024197;28;48239;-63
2023/07/28 05:00:22;;;;;;;;;1.50;1.50;;;;;20.40;60.61;100368.88;5040433;28;45320;-63
2023/07/28 05:02:48;;;;;;;;;4.00;1.00;;;;;20.39;61.14;100367.16;5041945;28;45514;-63
2023/07/28 05:05:13;;;;;;;;;1.00;1.00;;;;;20.37;60.85;100361.06;5041856;28;45510;-63
2023/07/28 05:07:38;;;;;;;;;1.75;1.00;;;;;20.37;60.72;100357.53;5041833;28;46057;-63
2023/07/28 05:10:04;;;;;;;;;2.00;2.00;;;;;20.33;60.84;100359.53;5041478;28;45168;-63
2023/07/28 05:12:29;;;;;;;;;1.50;1.00;;;;;20.35;60.57;100360.31;5041868;28;45230;-63
2023/07/28 05:14:55;;;;;;;;;1.00;0.75;;;;;20.33;60.63;100354.19;5023580;28;45310;-63
2023/07/28 05:17:20;;;;;;;;;3.25;2.00;;;;;20.35;60.77;100354.97;5041748;28;45403;-61
2023/07/28 05:19:45;;;;;;;;;0.00;0.00;;;;;20.32;60.76;100352.47;5041367;28;45296;-61
2023/07/28 05:22:11;;;;;;;;;0.50;0.50;;;;;20.36;60.86;100355.81;5041773;28;45234;-64
2023/07/28 05:24:36;;;;;;;;;2.00;2.00;;;;;20.35;60.90;100354.97;5041501;28;45508;-62
2023/07/28 05:27:01;;;;;;;;;2.00;2.00;;;;;20.29;60.84;100353.53;5041337;28;45574;-62
2023/07/28 05:29:27;;;;;;;;;1.00;1.00;;;;;20.36;61.57;100358.47;5041458;28;45392;-62
2023/07/28 05:31:52;;;;;;;;;1.00;1.00;;;;;20.35;61.55;100360.31;5041606;28;45150;-62
2023/07/28 05:34:17;;;;;;;;;1.00;1.00;;;;;20.35;61.26;100362.09;5041128;28;45578;-62
2023/07/28 05:36:44;;;;;;;;;4.50;1.00;;;;;20.34;61.54;100363.03;5040248;28;45375;-62
2023/07/28 05:39:09;;;;;;;;;1.00;1.00;;;;;20.34;61.69;100363.03;5041266;28;45538;-62
2023/07/28 05:41:35;;;;;;;;;1.50;1.50;;;;;20.33;61.32;100364.88;5041265;28;45262;-62
2023/07/28 05:44:01;;;;;;;;;0.75;0.75;;;;;20.34;61.72;100360.38;5041357;28;45261;-62
2023/07/28 05:46:26;;;;;;;;;2.00;0.75;;;;;20.30;61.16;100354.38;5040970;28;46473;-62
2023/07/28 05:48:54;;;;;;;;;11.00;11.00;;;;;20.34;61.86;100355.03;5040967;28;45432;-62
2023/07/28 05:51:19;;;;;;;;;2.50;2.00;;;;;20.32;61.18;100363.16;5041238;28;45297;-62
2023/07/28 05:53:45;;;;;;;;;2.25;1.25;;;;;20.29;61.27;100358.84;5040818;28;50787;-62
2023/07/28 05:56:10;;;;;;;;;4.75;3.00;;;;;20.36;61.85;100366.50;5040938;28;47141;-62
2023/07/28 05:58:35;;;;;;;;;2.00;2.00;;;;;20.35;61.63;100359.44;5040638;28;50155;-62
2023/07/28 06:01:00;;;;;;;;;1.00;1.00;;;;;20.36;61.39;100375.34;5041226;28;45190;-62
2023/07/28 06:03:26;;;;;;;;;1.25;1.25;;;;;20.35;61.41;100370.97;5040585;28;45451;-62
2023/07/28 06:05:52;;;;;;;;;2.00;2.00;;;;;20.38;61.43;100368.09;5040634;28;46271;-62
2023/07/28 06:08:17;;;;;;;;;2.00;2.00;;;;;20.38;61.58;100372.59;5040794;28;45158;-62
2023/07/28 06:10:43;;;;;;;;;0.50;0.50;;;;;20.39;61.87;100372.50;5040882;28;45219;-62
2023/07/28 06:13:08;;;;;;;;;1.00;1.00;;;;;20.37;61.86;100368.22;5040718;28;45264;-62
2023/07/28 06:15:34;;;;;;;;;1.75;1.75;;;;;20.41;61.55;100372.41;5040693;28;45369;-61
2023/07/28 06:18:02;;;;;;;;;3.00;3.00;;;;;20.42;61.72;100382.13;5040615;28;45413;-62
2023/07/28 06:20:27;;;;;;;;;3.00;1.75;;;;;20.42;61.97;100376.78;5040697;28;45355;-62
2023/07/28 06:22:52;;;;;;;;;2.00;2.00;;;;;20.43;62.11;100381.19;5040318;28;45326;-62
2023/07/28 06:25:18;;;;;;;;;2.75;2.00;;;;;20.42;61.94;100384.78;5040403;28;46202;-62
2023/07/28 06:27:43;;;;;;;;;1.25;1.25;;;;;20.46;61.72;100388.97;5040381;28;50601;-62
2023/07/28 06:30:09;;;;;;;;;3.00;3.00;;;;;20.45;62.10;100392.59;5040700;28;45233;-62
2023/07/28 06:32:34;;;;;;;;;5.25;3.00;;;;;20.44;62.49;100390.91;5040325;28;45440;-62
2023/07/28 06:34:59;;;;;;;;;3.75;2.00;;;;;20.46;61.96;100397.88;5040243;28;46291;-62
2023/07/28 06:37:25;;;;;;;;;5.50;3.50;;;;;20.45;62.01;100392.59;5040468;28;45297;-62
2023/07/28 06:39:50;;;;;;;;;2.00;2.00;;;;;20.46;62.50;100391.66;5040428;28;45234;-62
2023/07/28 06:42:20;;;;;;;;;2.00;2.00;;;;;20.44;62.06;100391.75;5032490;28;45403;-62
2023/07/28 06:44:46;;;;;;;;;3.00;3.00;;;;;20.46;62.41;100397.00;5020331;28;46639;-62
2023/07/28 06:47:11;;;;;;;;;3.00;3.00;;;;;20.44;62.17;100391.75;5019625;28;45333;-62
2023/07/28 06:49:36;;;;;;;;;4.25;2.00;;;;;20.48;62.63;100410.22;5018881;28;46697;-61
2023/07/28 06:52:01;;;;;;;;;2.25;2.25;;;;;20.49;62.62;100415.50;5020243;28;45460;-62
2023/07/28 06:54:27;;;;;;;;;4.00;3.00;;;;;20.49;62.63;100414.63;5020218;28;45363;-62
2023/07/28 06:56:53;;;;;;;;;3.00;3.00;;;;;20.50;62.30;100411.00;5019906;28;45345;-61
2023/07/28 06:59:18;;;;;;;;;2.00;2.00;;;;;20.51;62.49;100415.41;5029925;28;46189;-61
2023/07/28 07:01:43;;;;;;;;;2.75;2.75;;;;;20.51;62.48;100429.59;5040028;28;48890;-62
2023/07/28 07:04:08;;;;;;;;;3.00;3.00;;;;;20.51;62.09;100418.06;5039448;28;51408;-61
2023/07/28 07:06:34;;;;;;;;;3.25;2.75;;;;;20.52;62.57;100425.13;5040024;28;45220;-61
2023/07/28 07:08:59;;;;;;;;;2.75;2.75;;;;;20.51;62.25;100424.25;5039739;28;52446;-61
2023/07/28 07:11:24;;;;;;;;;3.00;3.00;;;;;20.51;62.33;100423.41;5021804;28;45674;-61
2023/07/28 07:13:50;;;;;;;;;4.00;4.00;;;;;20.51;62.69;100428.75;5039584;28;45789;-62
2023/07/28 07:16:16;;;;;;;;;3.25;3.00;;;;;20.50;62.48;100425.19;5039927;28;45411;-62
2023/07/28 07:18:43;;;;;;;;;7.25;6.50;;;;;20.53;62.32;100421.50;5039633;28;45226;-62
2023/07/28 07:21:08;;;;;;;;;5.50;4.50;;;;;20.53;62.67;100429.53;5039826;28;45439;-62
2023/07/28 07:23:34;;;;;;;;;3.00;3.00;;;;;20.54;62.71;100428.53;5039433;28;46300;-62
2023/07/28 07:25:59;;;;;;;;;4.25;3.00;;;;;20.52;62.43;100428.63;5039373;28;55858;-62
2023/07/28 07:28:25;;;;;;;;;4.00;4.00;;;;;20.52;62.27;100423.31;5021908;28;45500;-62
2023/07/28 07:30:50;;;;;;;;;7.00;5.25;;;;;20.57;62.55;100431.03;5039706;28;45297;-62
2023/07/28 07:33:16;;;;;;;;;3.50;3.50;;;;;20.57;62.19;100433.72;5039380;28;46321;-62
2023/07/28 07:35:41;;;;;;;;;3.25;3.25;;;;;20.55;62.90;100438.28;5039320;28;54537;-62
2023/07/28 07:38:08;;;;;;;;;2.75;2.75;;;;;20.57;62.38;100445.22;5039761;28;45260;-62
2023/07/28 07:40:35;;;;;;;;;3.25;3.25;;;;;20.55;62.69;100440.94;5039457;28;45305;-62
2023/07/28 07:43:02;;;;;;;;;2.50;1.50;;;;;20.53;62.69;100445.53;5039449;28;46334;-63
2023/07/28 07:45:27;;;;;;;;;1.75;1.00;;;;;20.56;62.61;100448.84;5039273;28;45194;-62
2023/07/28 07:47:53;;;;;;;;;0.75;0.75;;;;;20.57;63.04;100452.41;5039440;28;45188;-63
2023/07/28 07:50:18;;;;;;;;;2.00;1.00;;;;;20.56;62.42;100454.19;5039451;28;45456;-63
2023/07/28 07:52:44;;;;;;;;;1.00;1.00;;;;;20.56;62.30;100456.00;5039651;28;45220;-63
2023/07/28 07:55:13;;;;;;;;;2.00;2.00;;;;;20.56;62.20;100443.50;5039267;28;45477;-63
2023/07/28 07:57:39;;;;;;;;;0.00;0.00;;;;;20.56;62.50;100445.34;5039737;28;45259;-63
2023/07/28 08:00:06;;;;;;;;;2.00;0.00;;;;;20.57;62.93;100445.22;5041210;28;45595;-63
2023/07/28 08:02:31;;;;;;;;;4.75;2.00;;;;;20.55;62.37;100443.59;5042709;28;46392;-63
2023/07/28 08:04:57;;;;;;;;;0.25;0.25;;;;;20.55;62.75;100451.63;5042703;28;45333;-63
2023/07/28 08:07:23;;;;;;;;;2.25;1.00;;;;;20.57;62.68;100455.06;5041966;28;45173;-63
2023/07/28 08:09:48;;;;;;;;;0.00;0.00;;;;;20.56;62.23;100453.34;5042643;28;45518;-62
2023/07/28 08:12:15;;;;;;;;;2.00;1.00;;;;;20.56;62.45;100450.66;5024797;28;46046;-62
2023/07/28 08:14:40;;;;;;;;;1.75;1.75;;;;;20.56;62.94;100453.34;5042711;28;45336;-63
2023/07/28 08:17:05;;;;;;;;;0.50;0.50;;;;;20.55;62.78;100462.28;5042535;28;45302;-63
2023/07/28 08:19:31;;;;;;;;;6.50;6.50;;;;;20.51;62.25;100450.09;5042448;28;45550;-63
2023/07/28 08:21:56;;;;;;;;;0.25;0.00;;;;;20.52;62.50;100462.50;5042419;28;46238;-63
2023/07/28 08:24:21;;;;;;;;;1.50;0.25;;;;;20.51;62.82;100455.44;5042493;28;45510;-63
2023/07/28 08:26:47;;;;;;;;;0.00;0.00;;;;;20.52;62.52;100470.50;5042502;28;45566;-63
2023/07/28 08:29:12;;;;;;;;;2.00;1.00;;;;;20.50;62.56;100459.88;5041244;28;45458;-63
2023/07/28 08:31:37;;;;;;;;;1.00;1.00;;;;;20.45;62.99;100452.19;5042448;28;45249;-63
2023/07/28 08:34:03;;;;;;;;;0.00;0.00;;;;;20.50;62.81;100472.38;5042155;28;45455;-63
2023/07/28 08:36:28;;;;;;;;;0.00;0.00;;;;;20.49;62.47;100482.22;5042494;28;45295;-63
2023/07/28 08:38:54;;;;;;;;;1.00;1.00;;;;;20.48;62.61;100474.28;5042358;28;45168;-63
2023/07/28 08:41:19;;;;;;;;;1.50;1.50;;;;;20.50;62.85;100469.72;5042151;28;46171;-63
2023/07/28 08:43:45;;;;;;;;;1.75;1.75;;;;;20.50;63.31;100475.06;5042302;28;45415;-63
2023/07/28 08:46:10;;;;;;;;;3.00;2.75;;;;;20.48;62.99;100476.94;5042368;28;45246;-63
2023/07/28 08:48:36;;;;;;;;;2.50;2.50;;;;;20.49;63.27;100482.22;5042019;28;45231;-63
2023/07/28 08:51:02;;;;;;;;;2.00;2.00;;;;;20.50;62.89;100480.41;5042020;28;45340;-63
2023/07/28 08:53:27;;;;;;;;;1.50;1.50;;;;;20.46;63.51;100479.72;5042118;28;45222;-63
2023/07/28 08:55:53;;;;;;;;;3.50;1.00;;;;;20.48;63.38;100487.63;5041938;28;45328;-63
2023/07/28 08:58:20;;;;;;;;;2.75;2.75;;;;;20.50;63.19;100485.72;5042057;28;45469;-64
2023/07/28 09:00:50;;;;;;;;;1.25;1.25;;;;;20.49;62.99;100495.56;5041873;28;45360;-63
2023/07/28 09:03:17;;;;;;;;;2.75;1.00;;;;;20.49;63.52;100486.69;5040792;28;45530;-63
2023/07/28 09:05:44;;;;;;;;;2.00;2.00;;;;;20.48;63.67;100484.94;5041427;28;45404;-63
2023/07/28 09:08:09;;;;;;;;;7.00;7.00;;;;;20.49;63.32;100489.34;5041817;28;45397;-63
2023/07/28 09:10:49;;;;;;;;;2.75;2.00;;;;;20.51;63.38;100487.47;5041358;28;46855;-63
2023/07/28 09:13:15;;;;;;;;;2.25;1.75;;;;;20.51;63.44;100490.97;5041670;28;45190;-63
2023/07/28 09:15:41;;;;;;;;;3.25;1.25;;;;;20.52;63.96;100487.34;5041845;28;45179;-63
2023/07/28 09:18:10;;;;;;;;;1.75;1.75;;;;;20.53;63.34;100493.56;5041452;28;45163;-63
2023/07/28 09:20:43;;;;;;;;;0.67;0.67;;;;;20.54;63.39;100479.25;5041677;28;45443;-64
2023/07/28 09:23:10;;;;;;;;;0.00;0.00;;;;;20.55;64.06;100483.66;5041391;28;45535;-63
2023/07/28 09:25:37;;;;;;;;;0.00;0.00;;;;;20.56;63.67;100474.69;5041596;28;45253;-64
2023/07/28 09:28:03;;;;;;;;;0.50;0.00;;;;;20.60;63.57;100486.91;5041314;28;45290;-64
2023/07/28 09:30:47;;;;;;;;;3.00;1.33;;;;;20.62;64.11;100490.34;5041416;28;46927;-63
2023/07/28 09:33:13;;;;;;;;;0.00;0.00;;;;;20.62;64.17;100477.00;5040983;28;45311;-64
2023/07/28 09:35:49;;;;;;;;;1.50;1.00;;;;;20.67;63.90;100484.72;5040243;28;45557;-63
2023/07/28 09:38:16;;;;;;;;;1.25;1.00;;;;;20.70;63.60;100481.88;5041617;28;45230;-63
2023/07/28 09:40:41;;;;;;;;;1.00;0.25;;;;;20.72;64.07;100480.84;5041009;28;47080;-63
2023/07/28 09:43:07;;;;;;;;;0.00;0.00;;;;;20.76;64.24;100482.38;5040872;28;45289;-64
2023/07/28 09:45:34;;;;;;;;;1.00;1.00;;;;;20.78;63.83;100479.63;5023351;28;45412;-63
2023/07/28 09:48:02;;;;;;;;;1.00;1.00;;;;;20.84;64.24;100479.25;5022872;28;45377;-63
2023/07/28 09:50:32;;;;;;;;;1.50;1.00;;;;;20.86;64.15;100473.81;5022965;28;46970;-64
2023/07/28 09:53:01;;;;;;;;;1.67;1.67;;;;;20.91;63.97;100477.06;5041173;28;45300;-64
2023/07/28 09:55:26;;;;;;;;;0.25;0.00;;;;;20.94;64.22;100483.06;5022917;28;45395;-64
2023/07/28 09:57:55;;;;;;;;;1.50;1.00;;;;;20.98;64.14;100478.41;5041065;28;45305;-63
2023/07/28 10:00:22;;;;;;;;;2.00;1.00;;;;;21.01;64.43;100472.00;5040670;28;46389;-64
2023/07/28 10:02:48;;;;;;;;;0.00;0.00;;;;;21.07;64.21;100479.63;5040529;28;45336;-63
2023/07/28 10:05:15;;;;;;;;;0.67;0.00;;;;;21.11;64.09;100476.66;5038276;28;45436;-63
2023/07/28 10:07:44;;;;;;;;;1.25;1.25;;;;;21.19;64.05;100478.00;5055971;28;45351;-64
2023/07/28 10:10:12;;;;;;;;;2.00;2.00;;;;;21.25;64.15;100472.28;5021226;28;46271;-64
2023/07/28 10:12:51;;;;;;;;;1.00;1.00;;;;;21.33;64.44;100483.31;5029617;28;45416;-63
2023/07/28 10:15:17;;;;;;;;;1.00;1.00;;;;;21.37;64.30;100475.97;5040854;28;45478;-63
2023/07/28 10:17:54;;;;;;;;;4.25;2.00;;;;;21.40;64.33;100471.28;5022436;28;45474;-63
2023/07/28 10:20:32;;;;;;;;;3.00;1.00;;;;;21.51;64.53;100475.06;5040617;28;45360;-63
2023/07/28 10:23:13;;;;;;;;;0.00;0.00;;;;;21.57;64.60;100470.25;5039659;28;45225;-63
2023/07/28 10:25:40;;;;;;;;;1.25;1.00;;;;;21.63;64.35;100465.44;5032521;28;45511;-63
2023/07/28 10:28:07;;;;;;;;;0.00;0.00;;;;;21.70;64.42;100466.78;5033666;28;45268;-63
2023/07/28 10:30:38;;;;;;;;;2.00;2.00;;;;;21.76;64.45;100461.03;5020349;28;46381;-63
2023/07/28 10:33:04;;;;;;;;;2.00;2.00;;;;;21.83;64.13;100465.00;5020336;28;45357;-63
2023/07/28 10:35:32;;;;;;;;;0.00;0.00;;;;;21.88;64.63;100462.88;5020575;28;45303;-64
2023/07/28 10:37:58;;;;;;;;;1.00;1.00;;;;;21.95;64.39;100463.34;5020570;28;45580;-64
2023/07/28 10:40:31;;;;;;;;;2.00;2.00;;;;;22.02;64.60;100459.28;5020019;28;46268;-64
2023/07/28 10:42:57;;;;;;;;;3.75;3.75;;;;;22.12;64.42;100459.53;5020341;28;45337;-63
2023/07/28 10:45:25;;;;;;;;;2.25;1.25;;;;;22.23;64.38;100461.50;5020290;28;45247;-64
2023/07/28 10:47:52;;;;;;;;;4.00;3.00;;;;;22.35;64.58;100451.75;5020153;28;45340;-64
2023/07/28 10:50:18;;;;;;;;;2.00;2.00;;;;;22.45;64.43;100447.53;5020137;28;47000;-63
2023/07/28 10:52:45;;;;;;;;;1.00;1.00;;;;;22.61;64.60;100443.78;5020230;28;45334;-64
2023/07/28 10:55:22;;;;;;;;;1.00;1.00;;;;;22.73;64.59;100450.97;5019921;28;45182;-64
2023/07/28 10:57:50;;;;;;;;;1.00;1.00;;;;;22.84;64.64;100437.69;5020374;28;45269;-64
2023/07/28 11:00:18;;;;;;;;;3.00;1.00;;;;;22.95;64.31;100436.91;5037327;28;45412;-64
2023/07/28 11:02:43;;;;;;;;;0.00;0.00;;;;;23.08;64.37;100444.94;5039717;28;45601;-64
2023/07/28 11:05:14;;;;;;;;;1.00;1.00;;;;;23.15;64.03;100440.88;5038660;28;45316;-64
2023/07/28 11:07:43;;;;;;;;;2.00;2.00;;;;;23.23;63.88;100448.34;5038930;28;45319;-64
2023/07/28 11:10:11;;;;;;;;;2.25;0.75;;;;;23.28;63.92;100448.91;5039525;28;46148;-64
2023/07/28 11:12:40;;;;;;;;;1.00;1.00;;;;;23.35;63.78;100444.78;5039884;28;45234;-64
2023/07/28 11:15:10;;;;;;;;;2.00;2.00;;;;;23.41;63.24;100451.53;5039711;28;45292;-62
2023/07/28 11:17:37;;;;;;;;;1.00;1.00;;;;;23.43;63.57;100459.47;5031415;28;45305;-63
2023/07/28 11:20:03;;;;;;;;;1.00;1.00;;;;;23.47;63.45;100447.53;5019852;28;46350;-63